createdAt,value
2022-10-19T00:00:11.362Z,101020.40
2022-10-19T00:05:26.077Z,101011.60
2022-10-19T00:10:21.200Z,101014.20
2022-10-19T00:15:16.039Z,101014.00
2022-10-19T00:20:13.459Z,101006.20
2022-10-19T00:25:11.018Z,101004.60
2022-10-19T00:30:08.215Z,101005.20
2022-10-19T00:35:03.277Z,101005.20
2022-10-19T00:39:58.169Z,101003.80
2022-10-19T00:45:16.043Z,100998.00
2022-10-19T00:50:15.082Z,101001.40
2022-10-19T00:55:12.171Z,100989.20
2022-10-19T01:00:11.004Z,100993.60
2022-10-19T01:05:09.109Z,100986.40
2022-10-19T01:10:05.889Z,100982.80
2022-10-19T01:15:18.243Z,100980.00
2022-10-19T01:20:51.344Z,100978.80
2022-10-19T01:26:02.200Z,100975.20
2022-10-19T01:31:05.615Z,100965.80
2022-10-19T01:36:12.971Z,100962.60
2022-10-19T01:41:17.605Z,100959.20
2022-10-19T01:46:18.174Z,100950.40
2022-10-19T01:51:19.314Z,100951.00
2022-10-19T01:56:17.817Z,100945.80
2022-10-19T02:01:16.560Z,100944.00
2022-10-19T02:06:17.810Z,100939.80
2022-10-19T02:11:12.341Z,100939.20
2022-10-19T02:16:16.574Z,100930.00
2022-10-19T02:21:12.063Z,100932.20
2022-10-19T02:26:07.779Z,100933.80
2022-10-19T02:31:04.387Z,100934.20
2022-10-19T02:36:00.228Z,100925.80
2022-10-19T02:41:07.245Z,100912.40
2022-10-19T02:46:11.385Z,100902.20
2022-10-19T02:51:26.626Z,100908.80
2022-10-19T02:56:22.222Z,100906.40
2022-10-19T03:01:17.281Z,100910.60
2022-10-19T03:06:12.430Z,100902.20
2022-10-19T03:11:07.451Z,100907.80
2022-10-19T03:16:10.440Z,100903.80
2022-10-19T03:21:08.982Z,100908.60
2022-10-19T03:26:04.345Z,100902.00
2022-10-19T03:31:00.182Z,100904.60
2022-10-19T03:36:17.996Z,100897.60
2022-10-19T03:41:13.989Z,100900.40
2022-10-19T03:46:09.446Z,100892.80
2022-10-19T03:51:08.062Z,100887.80
2022-10-19T03:56:12.537Z,100891.80
2022-10-19T04:01:11.404Z,100887.80
2022-10-19T04:06:11.492Z,100882.60
2022-10-19T04:11:10.427Z,100888.00
2022-10-19T04:16:07.051Z,100887.40
2022-10-19T04:21:04.676Z,100881.80
2022-10-19T04:26:03.569Z,100880.20
2022-10-19T04:31:01.916Z,100883.20
2022-10-19T04:36:00.845Z,100889.40
2022-10-19T04:40:56.114Z,100881.60
2022-10-19T04:45:50.999Z,100871.40
2022-10-19T04:50:45.689Z,100869.40
2022-10-19T04:55:48.206Z,100864.60
2022-10-19T05:00:43.039Z,100862.40
2022-10-19T05:05:38.166Z,100854.20
2022-10-19T05:10:34.142Z,100848.00
2022-10-19T05:15:28.952Z,100851.80
2022-10-19T05:20:24.828Z,100860.00
2022-10-19T05:25:20.037Z,100860.20
2022-10-19T05:30:14.872Z,100860.60
2022-10-19T05:35:11.030Z,100859.20
2022-10-19T05:40:09.968Z,100862.20
2022-10-19T05:45:06.647Z,100867.40
2022-10-19T05:50:01.773Z,100865.00
2022-10-19T05:54:57.819Z,100864.40
2022-10-19T05:59:56.166Z,100862.40
2022-10-19T06:04:51.665Z,100858.60
2022-10-19T06:09:47.294Z,100853.40
2022-10-19T06:14:42.783Z,100856.20
2022-10-19T06:19:38.436Z,100852.20
2022-10-19T06:24:33.512Z,100850.20
2022-10-19T06:29:28.620Z,100856.60
2022-10-19T06:34:24.405Z,100864.80
2022-10-19T06:39:19.921Z,100869.40
2022-10-19T06:44:14.797Z,100865.60
2022-10-19T06:49:14.312Z,100869.00
2022-10-19T06:54:09.800Z,100865.80
2022-10-19T06:59:04.828Z,100865.80
2022-10-19T07:03:59.458Z,100859.20
2022-10-19T07:08:54.565Z,100863.20
2022-10-19T07:13:49.253Z,100856.60
2022-10-19T07:18:44.187Z,100860.20
2022-10-19T07:23:41.549Z,100863.20
2022-10-19T07:28:36.716Z,100876.40
2022-10-19T07:33:31.686Z,100875.60
2022-10-19T07:38:26.802Z,100868.00
2022-10-19T07:43:21.141Z,100864.40
2022-10-19T07:48:16.201Z,100877.40
2022-10-19T07:53:11.072Z,100881.80
2022-10-19T07:58:05.856Z,100871.00
2022-10-19T08:03:31.699Z,100876.60
2022-10-19T08:08:15.541Z,100875.60
2022-10-19T08:13:11.111Z,100875.00
2022-10-19T08:18:06.416Z,100874.40
2022-10-19T08:23:01.539Z,100866.40
2022-10-19T08:27:56.973Z,100860.60
2022-10-19T08:32:52.217Z,100873.00
2022-10-19T08:37:47.928Z,100873.20
2022-10-19T08:42:57.325Z,100878.20
2022-10-19T08:48:21.526Z,100864.60
2022-10-19T08:53:27.396Z,100882.80
2022-10-19T08:58:47.110Z,100864.00
2022-10-19T09:03:55.403Z,100872.80
2022-10-19T09:08:55.480Z,100877.80
2022-10-19T09:14:04.805Z,100886.20
2022-10-19T09:19:00.051Z,100895.60
2022-10-19T09:24:04.122Z,100895.40
2022-10-19T09:29:07.220Z,100897.60
2022-10-19T09:34:11.906Z,100901.20
2022-10-19T09:39:07.266Z,100900.80
2022-10-19T09:44:02.584Z,100902.20
2022-10-19T09:49:01.194Z,100928.60
2022-10-19T09:53:56.992Z,100922.80
2022-10-19T09:58:55.029Z,100924.40
2022-10-19T10:03:55.238Z,100924.80
2022-10-19T10:08:57.555Z,100922.80
2022-10-19T10:13:55.782Z,100932.00
2022-10-19T10:19:01.329Z,100940.20
2022-10-19T10:24:16.411Z,100932.80
2022-10-19T10:29:28.971Z,100930.40
2022-10-19T10:34:46.018Z,100936.20
2022-10-19T10:39:46.763Z,100940.40
2022-10-19T10:44:50.826Z,100935.00
2022-10-19T10:49:56.136Z,100936.80
2022-10-19T10:55:02.714Z,100933.20
2022-10-19T11:00:07.571Z,100940.00
2022-10-19T11:05:10.835Z,100936.20
2022-10-19T11:10:20.350Z,100943.20
2022-10-19T11:15:23.705Z,100942.80
2022-10-19T11:20:19.251Z,100945.60
2022-10-19T11:25:38.176Z,100943.80
2022-10-19T11:30:42.819Z,100941.00
2022-10-19T11:35:52.601Z,100942.60
2022-10-19T11:41:19.036Z,100944.60
2022-10-19T11:46:25.757Z,100942.60
2022-10-19T11:51:32.832Z,100937.00
2022-10-19T11:56:58.055Z,100935.40
2022-10-19T12:02:03.035Z,100941.20
2022-10-19T12:07:15.582Z,100947.60
2022-10-19T12:12:25.244Z,100950.60
2022-10-19T12:17:29.490Z,100945.20
2022-10-19T12:22:29.346Z,100940.40
2022-10-19T12:27:32.970Z,100949.20
2022-10-19T12:32:31.353Z,100942.80
2022-10-19T12:37:33.038Z,100949.80
2022-10-19T12:42:38.816Z,100945.40
2022-10-19T12:47:34.720Z,100942.40
2022-10-19T12:52:44.996Z,100940.40
2022-10-19T12:57:47.356Z,100945.80
2022-10-19T13:02:44.201Z,100936.60
2022-10-19T13:07:39.669Z,100953.80
2022-10-19T13:12:49.709Z,100960.20
2022-10-19T13:17:45.922Z,100963.40
2022-10-19T13:22:41.716Z,100973.40
2022-10-19T13:27:40.639Z,100987.40
2022-10-19T13:32:42.699Z,100996.60
2022-10-19T13:37:38.314Z,100997.60
2022-10-19T13:42:33.721Z,101000.00
2022-10-19T13:47:39.348Z,101003.00
2022-10-19T13:53:01.179Z,101007.80
2022-10-19T13:58:40.208Z,101020.00
2022-10-19T14:03:57.437Z,101027.60
2022-10-19T14:09:38.084Z,101028.80
2022-10-19T14:19:47.162Z,101039.40
2022-10-19T14:24:42.736Z,101039.20
2022-10-19T14:29:47.133Z,101040.80
2022-10-19T14:34:43.983Z,101051.40
2022-10-19T14:39:38.821Z,101042.80
2022-10-19T14:44:41.159Z,101056.00
2022-10-19T14:49:36.009Z,101060.40
2022-10-19T14:54:36.892Z,101061.20
2022-10-19T14:59:37.711Z,101083.40
2022-10-19T15:04:38.669Z,101088.00
2022-10-19T15:09:47.872Z,101077.80
2022-10-19T15:14:45.421Z,101077.40
2022-10-19T15:19:43.021Z,101086.80
2022-10-19T15:24:38.386Z,101090.20
2022-10-19T15:29:33.056Z,101097.60
2022-10-19T15:34:31.026Z,101100.80
2022-10-19T15:39:39.845Z,101106.60
2022-10-19T15:44:44.318Z,101115.80
2022-10-19T15:49:59.160Z,101129.20
2022-10-19T15:54:56.259Z,101136.00
2022-10-19T15:59:52.440Z,101145.80
2022-10-19T16:04:48.073Z,101151.20
2022-10-19T16:09:43.331Z,101158.20
2022-10-19T16:14:38.131Z,101164.00
2022-10-19T16:19:33.123Z,101160.00
2022-10-19T16:24:28.716Z,101182.40
2022-10-19T16:29:28.153Z,101186.80
2022-10-19T16:34:24.200Z,101187.60
2022-10-19T16:39:20.040Z,101194.60
2022-10-19T16:44:15.293Z,101197.20
2022-10-19T16:49:10.526Z,101203.40
2022-10-19T16:54:09.227Z,101205.00
2022-10-19T16:59:06.225Z,101214.00
2022-10-19T17:04:01.259Z,101213.00
2022-10-19T17:14:14.725Z,101225.80
2022-10-19T17:19:11.435Z,101232.20
2022-10-19T17:24:13.841Z,101236.40
2022-10-19T17:29:12.718Z,101240.20
2022-10-19T17:34:08.682Z,101248.80
2022-10-19T17:39:08.206Z,101260.40
2022-10-19T17:44:05.920Z,101262.80
2022-10-19T17:49:01.140Z,101270.00
2022-10-19T17:53:59.403Z,101275.00
2022-10-19T17:58:55.812Z,101279.60
2022-10-19T18:03:52.020Z,101280.20
2022-10-19T18:08:49.915Z,101284.40
2022-10-19T18:13:45.701Z,101283.20
2022-10-19T18:18:45.184Z,101284.60
2022-10-19T18:23:41.809Z,101289.60
2022-10-19T18:28:37.750Z,101283.20
2022-10-19T18:33:32.655Z,101286.40
2022-10-19T18:38:27.524Z,101287.40
2022-10-19T18:43:22.585Z,101291.20
2022-10-19T18:48:17.936Z,101292.00
2022-10-19T18:53:14.129Z,101302.20
2022-10-19T18:58:10.205Z,101316.60
2022-10-19T19:03:06.957Z,101308.00
2022-10-19T19:08:03.157Z,101310.20
2022-10-19T19:12:58.232Z,101312.00
2022-10-19T19:17:56.052Z,101320.00
2022-10-19T19:22:51.013Z,101329.20
2022-10-19T19:27:46.460Z,101327.80
2022-10-19T19:32:43.427Z,101339.60
2022-10-19T19:37:39.186Z,101348.00
2022-10-19T19:42:35.428Z,101349.80
2022-10-19T19:47:30.239Z,101354.00
2022-10-19T19:52:25.421Z,101363.00
2022-10-19T19:57:19.823Z,101368.00
2022-10-19T20:02:16.287Z,101369.80
2022-10-19T20:07:11.204Z,101373.60
2022-10-19T20:12:06.653Z,101385.40
2022-10-19T20:17:04.192Z,101389.80
2022-10-19T20:21:59.977Z,101393.20
2022-10-19T20:26:56.569Z,101397.40
2022-10-19T20:31:51.716Z,101404.20
2022-10-19T20:36:47.268Z,101409.80
2022-10-19T20:41:43.800Z,101409.60
2022-10-19T20:46:39.379Z,101417.40
2022-10-19T20:51:37.965Z,101424.80
2022-10-19T20:56:36.502Z,101425.20
2022-10-19T21:01:35.177Z,101422.60
2022-10-19T21:06:35.274Z,101424.40
2022-10-19T21:11:32.791Z,101429.80
2022-10-19T21:16:33.288Z,101432.60
2022-10-19T21:21:31.362Z,101435.40
2022-10-19T21:26:28.674Z,101436.20
2022-10-19T21:31:25.890Z,101433.20
2022-10-19T21:36:24.534Z,101442.80
2022-10-19T21:41:25.490Z,101443.20
2022-10-19T21:46:23.684Z,101447.80
2022-10-19T21:51:37.724Z,101440.00
2022-10-19T21:56:33.689Z,101440.20
2022-10-19T22:01:35.972Z,101445.40
2022-10-19T22:06:36.479Z,101439.20
2022-10-19T22:11:31.893Z,101436.60
2022-10-19T22:16:29.147Z,101435.80
2022-10-19T22:21:26.589Z,101439.00
2022-10-19T22:26:26.616Z,101439.80
2022-10-19T22:31:20.922Z,101441.80
2022-10-19T22:36:16.731Z,101452.00
2022-10-19T22:42:23.264Z,101459.60
2022-10-19T22:47:36.902Z,101465.00
2022-10-19T22:52:32.616Z,101466.00
2022-10-19T22:57:27.766Z,101472.20
2022-10-19T23:02:22.468Z,101475.40
2022-10-19T23:07:17.630Z,101483.20
2022-10-19T23:12:12.447Z,101486.60
2022-10-19T23:17:07.419Z,101483.40
2022-10-19T23:22:01.512Z,101488.40
2022-10-19T23:26:56.602Z,101497.20
2022-10-19T23:31:51.186Z,101486.60
2022-10-19T23:36:46.235Z,101491.60
2022-10-19T23:41:41.026Z,101497.00
2022-10-19T23:46:38.866Z,101512.60
2022-10-19T23:51:33.748Z,101520.40
2022-10-19T23:56:31.379Z,101529.40
